Main page
METAR-TAF:

METAR-TAF

Airports :

Angads Airport

Oujda, Morocco

latitude: 34-47N, longitude: 001-56W, elevation: 468 m

Current weather observation

The report was made 40 minutes ago, at 21:00 UTC
Wind 5 kt from the South
Temperature 12°C
Humidity 94%
Pressure 1016 hPa
Visibility 10 km or more
Few clouds at a height of 3000 ft

METAR: GMFO 172100Z 19005KT 9999 FEW030 12/11 Q1016 NOSIG

Time: 22:40 (21:40 UTC)

Forecast

The report was made 4 hours and 40 minutes ago, at 17:00 UTC
Forecast valid from 17 at 18 UTC to 18 at 24 UTC
Wind 4 kt from the West/Southwest
Visibility 10 km or more
Few clouds at a height of 2000 ft
Temporary
from 18 at 12 UTC to 18 at 18 UTC
Wind 14 kt from the North/Northwest
Probability 30% :
Temporary
from 18 at 16 UTC to 18 at 24 UTC
Broken clouds at a height of 3000 ft
Few clouds at a height of 4000 ft, Cumulonimbus.
rain showers

TAF: GMFO 171700Z 1718/1824 24004KT 9999 FEW020 TEMPO 1812/1818 34014KT PROB30 TEMPO 1816/1824 SHRA BKN030 FEW040CB

Weather observations and forecasts of more than 4000 airports (METAR and TAF reports).

The available stations are represented by yellow and red dots on the map.

Hover mouse over dot to see the name of the station.

Then click to see weather observations and forecasts.

To change the map : click on the green buttons with a black cross to zoom in, on the green button with a dash to zoom out, or on the green arrows for adjacent maps.


METAR-TAF: